Time;durP1;ratioP1;P1;durP2;ratioP2;P2;SDS_P1;SDS_P2;PMS_P1;PMS_P2;Temp;Humidity;BMP_temperature;BMP_pressure;BME280_temperature;BME280_humidity;BME280_pressure;Samples;Min_cycle;Max_cycle;Signal;HPM_P1;HPM_P2
2022/01/18 00:01:26;;;;;;;264.73;45.83;;;7.30;99.90;;;;;;6220863;23;20443;-80
2022/01/18 00:03:55;;;;;;;423.50;41.90;;;7.30;99.90;;;;;;6221081;23;20418;-80
2022/01/18 00:06:23;;;;;;;298.70;34.17;;;7.30;99.90;;;;;;6220997;23;20561;-80
2022/01/18 00:08:51;;;;;;;327.73;33.60;;;7.30;99.90;;;;;;6221046;23;20437;-80
2022/01/18 00:11:23;;;;;;;280.17;41.50;;;7.20;99.90;;;;;;6220827;23;20834;-80
2022/01/18 00:14:00;;;;;;;279.97;30.27;;;7.30;99.90;;;;;;6221187;23;20969;-80
2022/01/18 00:16:32;;;;;;;189.47;29.37;;;7.20;99.90;;;;;;6232497;23;20450;-80
2022/01/18 00:19:07;;;;;;;287.73;40.37;;;7.30;99.90;;;;;;6232664;23;20379;-80
2022/01/18 00:21:50;;;;;;;301.03;34.30;;;7.30;99.90;;;;;;6220387;23;20806;-80
2022/01/18 00:24:19;;;;;;;386.37;53.17;;;7.30;99.90;;;;;;6220744;23;20411;-80
2022/01/18 00:26:47;;;;;;;299.53;39.50;;;7.20;99.90;;;;;;6219940;23;20972;-80
2022/01/18 00:29:21;;;;;;;223.63;28.30;;;7.30;99.90;;;;;;6221459;23;20419;-80
2022/01/18 00:32:02;;;;;;;204.53;30.80;;;7.30;99.90;;;;;;6220971;23;20503;-80
2022/01/18 00:34:34;;;;;;;172.03;33.43;;;7.20;99.90;;;;;;6223546;23;20399;-80
2022/01/18 00:37:23;;;;;;;439.23;65.80;;;7.20;99.90;;;;;;6231968;23;20438;-80
2022/01/18 00:39:52;;;;;;;440.33;50.33;;;7.20;99.90;;;;;;6232840;23;20818;-80
2022/01/18 00:42:20;;;;;;;405.70;40.03;;;7.30;99.90;;;;;;6222847;23;20493;-81
2022/01/18 00:44:50;;;;;;;326.43;40.40;;;7.30;99.90;;;;;;6232337;23;20458;-80
2022/01/18 00:47:18;;;;;;;327.87;39.87;;;7.20;99.90;;;;;;6220462;23;20484;-80
2022/01/18 00:49:48;;;;;;;409.87;62.23;;;7.20;99.90;;;;;;6221361;23;20451;-80
2022/01/18 00:52:19;;;;;;;247.13;22.07;;;7.20;99.90;;;;;;6220558;23;20419;-80
2022/01/18 00:54:47;;;;;;;321.50;28.53;;;7.20;99.90;;;;;;6220142;23;20480;-81
2022/01/18 00:57:15;;;;;;;333.67;28.13;;;7.20;99.90;;;;;;6220590;23;20443;-80
2022/01/18 00:59:46;;;;;;;176.13;28.40;;;7.20;99.90;;;;;;6224940;23;20402;-80
2022/01/18 01:02:19;;;;;;;369.60;56.53;;;7.20;99.90;;;;;;6222788;23;20418;-80
2022/01/18 01:04:49;;;;;;;290.87;22.70;;;7.20;99.90;;;;;;6223438;23;20407;-80
2022/01/18 01:07:19;;;;;;;234.33;29.80;;;7.20;99.90;;;;;;6223140;23;20486;-80
2022/01/18 01:09:48;;;;;;;307.97;44.63;;;7.30;99.90;;;;;;6223093;23;20472;-80
2022/01/18 01:12:19;;;;;;;382.00;41.10;;;7.20;99.90;;;;;;6234612;23;20905;-80
2022/01/18 01:14:51;;;;;;;237.33;30.13;;;7.30;99.90;;;;;;6223142;23;20484;-80
2022/01/18 01:17:34;;;;;;;405.33;47.80;;;7.30;99.90;;;;;;6223480;23;20415;-80
2022/01/18 01:42:58;;;;;;;294.93;30.20;;;7.30;99.90;;;;;;6225124;23;20399;-80
2022/01/18 01:45:30;;;;;;;316.40;35.40;;;7.30;99.90;;;;;;6234044;23;20410;-80
2022/01/18 01:48:00;;;;;;;198.10;26.93;;;7.30;99.90;;;;;;6222811;23;20426;-81
2022/01/18 01:50:42;;;;;;;244.03;36.73;;;7.20;99.90;;;;;;6223039;23;20418;-80
2022/01/18 01:53:12;;;;;;;357.67;40.30;;;7.30;99.90;;;;;;6234585;23;20836;-80
2022/01/18 01:55:40;;;;;;;227.13;34.73;;;7.30;99.90;;;;;;6222120;23;20462;-80
2022/01/18 01:58:09;;;;;;;233.07;28.03;;;7.30;99.90;;;;;;6223005;23;20419;-80
2022/01/18 02:00:44;;;;;;;274.30;34.67;;;7.30;99.90;;;;;;6222402;23;20421;-80
2022/01/18 02:03:13;;;;;;;378.20;35.57;;;7.20;99.90;;;;;;6224524;23;20422;-80
2022/01/18 02:05:43;;;;;;;176.93;21.17;;;7.20;99.90;;;;;;6233856;23;20785;-80
2022/01/18 02:08:14;;;;;;;249.67;31.30;;;7.20;99.90;;;;;;6222094;23;20488;-80
2022/01/18 02:10:43;;;;;;;298.13;31.90;;;7.20;99.90;;;;;;6222402;23;20414;-80
2022/01/18 02:13:12;;;;;;;314.37;30.67;;;7.20;99.90;;;;;;6224417;23;20955;-80
2022/01/18 02:15:47;;;;;;;135.47;19.50;;;7.20;99.90;;;;;;6222129;23;20495;-80
2022/01/18 02:23:51;;;;;;;147.57;26.70;;;7.20;99.90;;;;;;6223705;23;20413;-80
2022/01/18 02:26:20;;;;;;;211.53;31.03;;;7.20;99.90;;;;;;6221957;23;20445;-80
2022/01/18 02:28:48;;;;;;;336.33;46.27;;;7.20;99.90;;;;;;6222194;23;20432;-80
2022/01/18 02:31:19;;;;;;;246.90;26.87;;;7.20;99.90;;;;;;6221658;23;20423;-81
2022/01/18 02:33:47;;;;;;;416.73;55.37;;;7.20;99.90;;;;;;6222523;23;20410;-80
2022/01/18 02:36:17;;;;;;;125.43;14.73;;;7.20;99.90;;;;;;6221462;23;20435;-81
2022/01/18 02:38:45;;;;;;;324.97;37.77;;;7.20;99.90;;;;;;6224158;23;20400;-80
2022/01/18 02:41:24;;;;;;;276.13;38.37;;;7.20;99.90;;;;;;6221671;23;20814;-80
2022/01/18 02:43:55;;;;;;;315.63;34.07;;;7.20;99.90;;;;;;6221904;23;20907;-80
2022/01/18 02:46:24;;;;;;;278.53;40.30;;;7.30;99.90;;;;;;6221556;23;20463;-80
2022/01/18 02:48:52;;;;;;;262.20;48.17;;;7.30;99.90;;;;;;6222239;23;20984;-81
2022/01/18 02:51:22;;;;;;;427.60;54.50;;;7.30;99.90;;;;;;6223708;23;20470;-80
2022/01/18 02:54:01;;;;;;;265.47;34.40;;;7.30;99.90;;;;;;6223487;23;20426;-80
2022/01/18 02:56:32;;;;;;;358.00;54.30;;;7.30;99.90;;;;;;6234415;23;20442;-80
2022/01/18 02:59:15;;;;;;;258.27;35.40;;;7.30;99.90;;;;;;6234049;23;20375;-80
2022/01/18 03:04:29;;;;;;;193.33;31.37;;;7.20;99.90;;;;;;6222854;23;20441;-80
2022/01/18 03:06:59;;;;;;;358.53;34.67;;;7.30;99.90;;;;;;6221376;23;20484;-81
2022/01/18 03:09:27;;;;;;;238.03;37.33;;;7.20;99.90;;;;;;6233292;23;20480;-80
2022/01/18 03:11:56;;;;;;;355.27;53.77;;;7.20;99.90;;;;;;6221563;23;20434;-80
2022/01/18 03:14:24;;;;;;;278.73;32.80;;;7.20;99.90;;;;;;6221795;23;20801;-81
2022/01/18 03:16:52;;;;;;;392.53;33.97;;;7.20;99.90;;;;;;6221968;23;20446;-81
2022/01/18 03:19:20;;;;;;;243.43;33.07;;;7.20;99.90;;;;;;6222128;23;20446;-80
2022/01/18 03:21:50;;;;;;;236.73;42.70;;;7.20;99.90;;;;;;6220590;23;20411;-80
2022/01/18 03:24:42;;;;;;;326.63;49.47;;;7.20;99.90;;;;;;6221534;23;20411;-80
2022/01/18 03:29:55;;;;;;;402.57;51.97;;;7.20;99.90;;;;;;6221656;23;20450;-81
2022/01/18 03:32:24;;;;;;;252.77;36.00;;;7.20;99.90;;;;;;6221897;23;20514;-80
2022/01/18 03:34:52;;;;;;;254.67;29.60;;;7.20;99.90;;;;;;6221396;23;20433;-80
2022/01/18 03:37:20;;;;;;;208.47;39.07;;;7.20;99.90;;;;;;6222922;23;20407;-80
2022/01/18 03:39:50;;;;;;;162.47;26.93;;;7.20;99.90;;;;;;6221974;23;20507;-80
2022/01/18 03:45:13;;;;;;;291.93;43.23;;;7.20;99.90;;;;;;6197678;23;20533;-80
2022/01/18 03:47:42;;;;;;;230.77;26.70;;;7.20;99.90;;;;;;6221735;23;20415;-80
2022/01/18 03:50:12;;;;;;;220.80;30.77;;;7.20;99.90;;;;;;6222713;23;20403;-80
2022/01/18 03:52:40;;;;;;;196.83;36.60;;;7.20;99.90;;;;;;6221596;23;20435;-80
2022/01/18 03:55:12;;;;;;;244.63;32.13;;;7.20;99.90;;;;;;6220800;23;20446;-80
2022/01/18 03:57:41;;;;;;;188.50;28.60;;;7.20;99.90;;;;;;6221466;23;20419;-80
2022/01/18 04:00:13;;;;;;;284.40;36.47;;;7.20;99.90;;;;;;6221263;23;20909;-80
2022/01/18 04:02:42;;;;;;;248.87;32.67;;;7.20;99.90;;;;;;6222782;23;20431;-80
2022/01/18 04:05:11;;;;;;;343.77;60.53;;;7.20;99.90;;;;;;6221132;23;20969;-80
2022/01/18 04:07:40;;;;;;;314.90;46.03;;;7.20;99.90;;;;;;6223044;23;20434;-80
2022/01/18 04:10:10;;;;;;;277.37;31.20;;;7.20;99.90;;;;;;6223642;23;20442;-80
2022/01/18 04:12:39;;;;;;;161.93;24.97;;;7.20;99.90;;;;;;6220455;23;20450;-80
2022/01/18 04:15:10;;;;;;;530.47;58.50;;;7.20;99.90;;;;;;6221125;23;20439;-82
2022/01/18 04:18:07;;;;;;;294.43;34.03;;;7.20;99.90;;;;;;6221731;23;20422;-80
2022/01/18 04:28:51;;;;;;;249.87;33.27;;;7.20;99.90;;;;;;6219710;23;20435;-80
2022/01/18 04:31:20;;;;;;;267.70;46.27;;;7.20;99.90;;;;;;6221332;23;20418;-80
2022/01/18 04:33:48;;;;;;;272.60;36.33;;;7.20;99.90;;;;;;6233018;23;20430;-80
2022/01/18 04:36:17;;;;;;;378.33;44.73;;;7.20;99.90;;;;;;6221057;23;20438;-80
2022/01/18 04:38:45;;;;;;;185.30;25.83;;;7.20;99.90;;;;;;6221082;23;20410;-80
2022/01/18 04:41:18;;;;;;;328.80;41.83;;;7.20;99.90;;;;;;6220672;23;20937;-80
2022/01/18 04:44:03;;;;;;;284.33;39.03;;;7.30;99.90;;;;;;6223001;23;20388;-80
2022/01/18 04:49:17;;;;;;;179.23;27.53;;;7.30;99.90;;;;;;6220983;23;20438;-80
2022/01/18 04:51:46;;;;;;;285.83;41.03;;;7.30;99.90;;;;;;6220615;23;20443;-81
2022/01/18 04:54:15;;;;;;;295.93;41.03;;;7.20;99.90;;;;;;6222593;23;20438;-80
2022/01/18 04:59:31;;;;;;;346.87;47.37;;;7.20;99.90;;;;;;6221400;23;20980;-80
2022/01/18 05:01:59;;;;;;;317.83;40.47;;;7.20;99.90;;;;;;6220825;23;20501;-80
2022/01/18 05:04:28;;;;;;;472.60;43.23;;;7.30;99.90;;;;;;6232222;23;20403;-80
2022/01/18 05:07:00;;;;;;;282.93;33.93;;;7.30;99.90;;;;;;6221023;23;20438;-80
2022/01/18 05:09:28;;;;;;;245.60;28.10;;;7.30;99.90;;;;;;6222130;23;20455;-80
2022/01/18 05:12:05;;;;;;;367.23;37.03;;;7.30;99.90;;;;;;6232890;23;20401;-80
2022/01/18 05:14:35;;;;;;;268.33;37.00;;;7.20;99.90;;;;;;6221135;23;20878;-80
2022/01/18 05:17:13;;;;;;;339.40;39.07;;;7.30;99.90;;;;;;6232025;23;20453;-80
2022/01/18 05:19:48;;;;;;;225.20;35.70;;;7.30;99.90;;;;;;6221530;23;20730;-80
2022/01/18 05:25:01;;;;;;;237.47;40.37;;;7.30;99.90;;;;;;6220815;23;20463;-80
2022/01/18 05:27:31;;;;;;;309.07;31.27;;;7.30;99.90;;;;;;6224014;23;20487;-80
2022/01/18 05:29:59;;;;;;;320.63;46.70;;;7.20;99.90;;;;;;6220546;23;20466;-80
2022/01/18 05:32:27;;;;;;;336.47;36.13;;;7.20;99.90;;;;;;6232802;23;20878;-81
2022/01/18 05:34:56;;;;;;;238.93;38.60;;;7.30;99.90;;;;;;6232387;23;20411;-80
2022/01/18 05:37:24;;;;;;;308.30;37.33;;;7.30;99.90;;;;;;6232073;23;20418;-81
2022/01/18 05:39:52;;;;;;;212.60;26.33;;;7.30;99.90;;;;;;6220415;23;20482;-81
2022/01/18 05:42:20;;;;;;;306.97;48.07;;;7.30;99.90;;;;;;6220938;23;20749;-80
2022/01/18 05:44:50;;;;;;;214.10;28.47;;;7.30;99.90;;;;;;6222411;23;20455;-80
2022/01/18 05:47:18;;;;;;;341.47;39.47;;;7.30;99.90;;;;;;6234338;23;20433;-80
2022/01/18 05:49:47;;;;;;;365.23;35.27;;;7.30;99.90;;;;;;6223986;23;20454;-80
2022/01/18 05:52:18;;;;;;;370.60;53.47;;;7.20;99.90;;;;;;6233861;23;20395;-80
2022/01/18 05:54:46;;;;;;;230.97;36.57;;;7.30;99.90;;;;;;6222553;23;20430;-80
2022/01/18 05:57:40;;;;;;;240.53;40.90;;;7.30;99.90;;;;;;6222503;23;20411;-80
2022/01/18 06:00:19;;;;;;;326.87;41.10;;;7.30;99.90;;;;;;6223278;23;20420;-80
2022/01/18 06:03:00;;;;;;;324.47;50.27;;;7.20;99.90;;;;;;6223106;23;20434;-80
2022/01/18 06:08:17;;;;;;;295.73;40.50;;;7.20;99.90;;;;;;6222180;23;20406;-80
2022/01/18 06:10:45;;;;;;;295.57;32.20;;;7.20;99.90;;;;;;6222766;23;20462;-80
2022/01/18 06:13:14;;;;;;;194.63;35.07;;;7.20;99.90;;;;;;6234240;23;20403;-80
2022/01/18 06:15:44;;;;;;;241.27;33.53;;;7.30;99.90;;;;;;6234200;23;20420;-80
2022/01/18 06:18:14;;;;;;;405.90;55.03;;;7.20;99.90;;;;;;6223832;23;20809;-80
2022/01/18 06:20:43;;;;;;;171.00;21.37;;;7.30;99.90;;;;;;6223693;23;20403;-80
2022/01/18 06:23:13;;;;;;;177.63;26.70;;;7.20;99.90;;;;;;6222533;23;20415;-81
2022/01/18 06:25:42;;;;;;;326.27;51.40;;;7.20;99.90;;;;;;6221848;23;20445;-80
2022/01/18 06:28:11;;;;;;;181.27;19.83;;;7.20;99.90;;;;;;6222247;23;20445;-80
2022/01/18 06:30:39;;;;;;;380.77;45.37;;;7.30;99.90;;;;;;6221810;23;20435;-80
2022/01/18 06:33:09;;;;;;;342.83;46.30;;;7.20;99.90;;;;;;6222962;23;20422;-80
2022/01/18 06:35:37;;;;;;;287.23;34.57;;;7.20;99.90;;;;;;6221791;23;20438;-80
2022/01/18 06:38:08;;;;;;;319.83;45.53;;;7.20;99.90;;;;;;6221881;23;20956;-80
2022/01/18 06:40:36;;;;;;;264.93;31.40;;;7.20;99.90;;;;;;6223314;23;20862;-81
2022/01/18 06:43:04;;;;;;;252.80;31.23;;;7.20;99.90;;;;;;6221980;23;20410;-81
2022/01/18 06:45:33;;;;;;;289.97;43.37;;;7.20;99.90;;;;;;6222741;23;20429;-81
2022/01/18 06:48:01;;;;;;;267.03;43.73;;;7.20;99.90;;;;;;6223400;23;20443;-80
2022/01/18 06:50:31;;;;;;;296.13;31.27;;;7.20;99.90;;;;;;6221843;23;20444;-80
2022/01/18 06:52:59;;;;;;;278.03;44.00;;;7.20;99.90;;;;;;6222022;23;20465;-81
2022/01/18 06:55:28;;;;;;;188.80;22.77;;;7.20;99.90;;;;;;6221878;23;20431;-80
2022/01/18 06:57:57;;;;;;;242.23;25.57;;;7.20;99.90;;;;;;6221926;23;20415;-81
2022/01/18 07:00:25;;;;;;;199.13;22.63;;;7.20;99.90;;;;;;6221877;23;20407;-80
2022/01/18 07:02:53;;;;;;;188.57;26.07;;;7.20;99.90;;;;;;6221981;23;20449;-81
2022/01/18 07:05:22;;;;;;;182.50;30.07;;;7.20;99.90;;;;;;6221401;23;20441;-80
2022/01/18 07:07:51;;;;;;;219.40;30.37;;;7.20;99.90;;;;;;6223704;23;20441;-80
2022/01/18 07:10:20;;;;;;;294.77;51.07;;;7.20;99.90;;;;;;6222042;23;20462;-80
2022/01/18 07:12:49;;;;;;;331.63;36.83;;;7.20;99.90;;;;;;6221559;23;20441;-80
2022/01/18 07:15:17;;;;;;;295.70;34.57;;;7.20;99.90;;;;;;6222374;23;20949;-81
2022/01/18 07:17:45;;;;;;;286.53;33.23;;;7.20;99.90;;;;;;6221642;23;20414;-80
2022/01/18 07:20:14;;;;;;;365.13;50.63;;;7.20;99.90;;;;;;6222074;23;20446;-80
2022/01/18 07:22:43;;;;;;;149.10;22.00;;;7.30;99.90;;;;;;6221355;23;20425;-81
2022/01/18 07:25:15;;;;;;;334.63;56.77;;;7.30;99.90;;;;;;6222314;23;20446;-80
2022/01/18 07:27:43;;;;;;;363.60;33.27;;;7.20;99.90;;;;;;6233518;23;20380;-80
2022/01/18 07:30:12;;;;;;;287.17;31.23;;;7.30;99.90;;;;;;6221160;23;20972;-80
2022/01/18 07:32:41;;;;;;;327.50;37.00;;;7.30;99.90;;;;;;6233622;23;20742;-80
2022/01/18 07:35:12;;;;;;;347.33;47.10;;;7.30;99.90;;;;;;6221848;23;20499;-80
2022/01/18 07:37:40;;;;;;;172.10;21.60;;;7.30;99.90;;;;;;6221259;23;20518;-80
2022/01/18 07:40:09;;;;;;;308.10;36.50;;;7.20;99.90;;;;;;6221803;23;20444;-80
2022/01/18 07:42:39;;;;;;;236.37;33.30;;;7.30;99.90;;;;;;6222037;23;21025;-80
2022/01/18 07:45:08;;;;;;;205.53;32.13;;;7.30;99.90;;;;;;6221656;23;20467;-80
2022/01/18 07:47:37;;;;;;;341.40;46.00;;;7.30;99.90;;;;;;6221548;23;20510;-81
2022/01/18 07:50:06;;;;;;;327.30;42.87;;;7.30;99.90;;;;;;6222309;23;20438;-81
2022/01/18 07:52:35;;;;;;;340.47;36.70;;;7.30;99.90;;;;;;6233273;23;20427;-80
2022/01/18 07:55:04;;;;;;;219.33;33.17;;;7.30;99.90;;;;;;6221859;23;20442;-80
2022/01/18 07:57:33;;;;;;;349.40;51.27;;;7.30;99.90;;;;;;6223459;23;20473;-80
2022/01/18 08:00:03;;;;;;;284.50;37.40;;;7.30;99.90;;;;;;6222297;23;20419;-80
2022/01/18 08:02:40;;;;;;;284.70;38.07;;;7.30;99.90;;;;;;6223793;23;20441;-81
2022/01/18 08:05:11;;;;;;;383.87;36.33;;;7.30;99.90;;;;;;6223049;23;21006;-80
2022/01/18 08:07:39;;;;;;;483.60;62.47;;;7.30;99.90;;;;;;6221536;23;20478;-80
2022/01/18 08:10:09;;;;;;;283.30;37.47;;;7.40;99.90;;;;;;6221473;23;20477;-81
2022/01/18 08:12:37;;;;;;;369.77;38.90;;;7.30;99.90;;;;;;6221828;23;20819;-80
2022/01/18 08:15:13;;;;;;;364.00;46.00;;;7.30;99.90;;;;;;6221256;23;20532;-81
2022/01/18 08:17:52;;;;;;;426.50;59.67;;;7.30;99.90;;;;;;6222047;23;20465;-81
2022/01/18 08:20:21;;;;;;;339.63;35.13;;;7.30;99.90;;;;;;6222711;23;20484;-81
2022/01/18 08:22:49;;;;;;;352.87;42.97;;;7.30;99.90;;;;;;6222120;23;20423;-80
2022/01/18 08:25:18;;;;;;;325.63;40.73;;;7.30;99.90;;;;;;6233422;23;20436;-81
2022/01/18 08:27:46;;;;;;;316.67;43.73;;;7.30;99.90;;;;;;6221770;23;20441;-81
2022/01/18 08:30:19;;;;;;;343.13;32.53;;;7.30;99.90;;;;;;6222624;23;20462;-81
2022/01/18 08:32:49;;;;;;;363.17;44.83;;;7.30;99.90;;;;;;6222883;23;20898;-81
2022/01/18 08:35:17;;;;;;;281.97;39.73;;;7.30;99.90;;;;;;6221289;23;20450;-81
2022/01/18 08:37:46;;;;;;;204.67;30.37;;;7.30;99.90;;;;;;6233642;23;20490;-81
2022/01/18 08:40:15;;;;;;;359.23;53.20;;;7.30;99.90;;;;;;6222469;23;20514;-81
2022/01/18 08:42:43;;;;;;;256.93;24.47;;;7.40;99.90;;;;;;6224629;23;20512;-81
2022/01/18 08:45:12;;;;;;;256.13;38.90;;;7.30;99.90;;;;;;6222245;23;20450;-81
2022/01/18 08:47:48;;;;;;;257.03;46.73;;;7.30;99.90;;;;;;6222044;23;20448;-81
2022/01/18 08:50:18;;;;;;;170.50;24.83;;;7.40;99.90;;;;;;6223308;23;20415;-80
2022/01/18 08:52:51;;;;;;;285.43;42.83;;;7.40;99.90;;;;;;6221143;23;20434;-80
2022/01/18 08:55:19;;;;;;;285.63;42.50;;;7.40;99.90;;;;;;6232753;23;20425;-80
2022/01/18 08:57:48;;;;;;;313.90;40.87;;;7.40;99.90;;;;;;6233320;23;20729;-80
2022/01/18 09:00:17;;;;;;;348.70;43.93;;;7.40;99.90;;;;;;6221545;23;20422;-80
2022/01/18 09:02:49;;;;;;;225.73;29.20;;;7.30;99.90;;;;;;6221886;23;20415;-80
2022/01/18 09:05:21;;;;;;;151.97;19.33;;;7.40;99.90;;;;;;6222698;23;20757;-80
2022/01/18 09:07:49;;;;;;;297.00;34.67;;;7.40;99.90;;;;;;6221152;23;20401;-80
2022/01/18 09:10:17;;;;;;;344.27;40.00;;;7.40;99.90;;;;;;6220240;23;20422;-80
2022/01/18 09:12:45;;;;;;;371.10;38.93;;;7.40;99.90;;;;;;6220270;23;20421;-80
2022/01/18 09:15:14;;;;;;;247.73;37.03;;;7.40;99.90;;;;;;6231624;23;20505;-80
2022/01/18 09:17:42;;;;;;;409.20;44.47;;;7.40;99.90;;;;;;6220508;23;20422;-80
2022/01/18 09:20:14;;;;;;;258.30;37.77;;;7.40;99.90;;;;;;6223970;23;20407;-80
2022/01/18 09:22:45;;;;;;;351.20;43.20;;;7.40;99.90;;;;;;6222178;23;20410;-80
2022/01/18 09:25:18;;;;;;;142.47;25.93;;;7.40;99.90;;;;;;6221730;23;20476;-80
2022/01/18 09:27:47;;;;;;;234.30;31.97;;;7.50;99.90;;;;;;6222700;23;20425;-80
2022/01/18 09:30:15;;;;;;;336.40;45.10;;;7.50;99.90;;;;;;6222679;23;20410;-80
2022/01/18 09:32:45;;;;;;;297.27;39.07;;;7.50;99.90;;;;;;6222589;23;20467;-80
2022/01/18 09:35:16;;;;;;;457.67;57.73;;;7.50;99.90;;;;;;6222770;23;20434;-80
2022/01/18 09:37:45;;;;;;;220.20;27.83;;;7.50;99.90;;;;;;6223263;23;20894;-80
2022/01/18 09:40:18;;;;;;;222.53;40.50;;;7.50;99.90;;;;;;6222465;23;20427;-80
2022/01/18 09:42:46;;;;;;;368.07;65.57;;;7.60;99.90;;;;;;6222317;23;20405;-80
2022/01/18 09:45:17;;;;;;;339.60;45.07;;;7.60;99.90;;;;;;6222242;23;20434;-80
2022/01/18 09:47:48;;;;;;;273.00;44.63;;;7.60;99.90;;;;;;6221516;23;20418;-80
2022/01/18 09:50:21;;;;;;;286.63;43.13;;;7.60;99.90;;;;;;6221591;23;20938;-80
2022/01/18 09:52:53;;;;;;;298.47;38.20;;;7.60;99.90;;;;;;6233729;23;20470;-80
2022/01/18 09:55:23;;;;;;;338.53;43.80;;;7.60;99.90;;;;;;6233421;23;20463;-80
2022/01/18 09:57:51;;;;;;;386.53;59.63;;;7.70;99.90;;;;;;6221564;23;20442;-80
2022/01/18 10:00:21;;;;;;;220.27;36.90;;;7.70;99.90;;;;;;6222217;23;20899;-80
2022/01/18 10:02:50;;;;;;;290.50;27.67;;;7.70;99.90;;;;;;6222066;23;20918;-80
2022/01/18 10:05:22;;;;;;;310.47;42.50;;;7.80;99.90;;;;;;6221710;23;20919;-80
2022/01/18 10:08:01;;;;;;;382.27;46.03;;;7.80;99.90;;;;;;6222097;23;20419;-80
2022/01/18 10:10:42;;;;;;;271.83;30.60;;;7.80;99.90;;;;;;6222101;23;20449;-80
2022/01/18 10:13:17;;;;;;;357.83;61.03;;;7.80;99.90;;;;;;6222906;23;20457;-80
2022/01/18 10:16:07;;;;;;;267.07;39.17;;;7.80;99.90;;;;;;6221548;23;20939;-80
2022/01/18 10:18:42;;;;;;;227.93;32.03;;;7.80;99.90;;;;;;6221258;23;20410;-80
2022/01/18 10:21:13;;;;;;;272.83;40.37;;;7.80;99.90;;;;;;6233352;23;20386;-80
2022/01/18 10:23:48;;;;;;;281.43;35.70;;;7.80;99.90;;;;;;6221824;23;20434;-80
2022/01/18 10:26:22;;;;;;;295.43;34.80;;;7.80;99.90;;;;;;6222331;23;20438;-80
2022/01/18 10:29:01;;;;;;;375.37;41.87;;;7.90;99.90;;;;;;6221592;23;20897;-80
2022/01/18 10:31:37;;;;;;;199.63;25.00;;;7.90;99.90;;;;;;6223083;23;20427;-80
2022/01/18 10:34:27;;;;;;;197.77;42.43;;;7.90;99.90;;;;;;6222010;23;20499;-80
2022/01/18 10:37:03;;;;;;;289.73;37.57;;;7.90;99.90;;;;;;6221087;23;20450;-80
2022/01/18 10:39:40;;;;;;;326.37;53.20;;;7.90;99.90;;;;;;6221561;23;20785;-80
2022/01/18 10:42:17;;;;;;;253.87;43.87;;;7.90;99.90;;;;;;6221699;23;20873;-80
2022/01/18 10:44:46;;;;;;;192.13;42.57;;;7.80;99.90;;;;;;6233531;23;20470;-80
2022/01/18 10:47:16;;;;;;;185.80;34.20;;;7.80;99.90;;;;;;6221413;23;20452;-80
2022/01/18 10:49:47;;;;;;;219.70;35.87;;;7.90;99.90;;;;;;6225054;23;20407;-80
2022/01/18 10:52:21;;;;;;;277.07;38.10;;;7.90;99.90;;;;;;6234772;23;20468;-80
2022/01/18 10:54:51;;;;;;;372.77;39.83;;;7.80;99.90;;;;;;6222253;23;20539;-80
2022/01/18 10:57:22;;;;;;;204.63;32.93;;;7.80;99.90;;;;;;6220941;23;20504;-80
2022/01/18 10:59:56;;;;;;;311.53;43.97;;;7.80;99.90;;;;;;6222748;23;20994;-80
2022/01/18 11:02:25;;;;;;;406.73;54.53;;;7.80;99.90;;;;;;6220478;23;20894;-80
2022/01/18 11:04:55;;;;;;;263.43;35.13;;;7.80;99.90;;;;;;6222765;23;20435;-80
2022/01/18 11:07:26;;;;;;;223.70;35.13;;;7.90;99.90;;;;;;6220761;23;20458;-80
2022/01/18 11:10:03;;;;;;;168.97;28.27;;;7.90;99.90;;;;;;6222670;23;20423;-80
2022/01/18 11:12:42;;;;;;;221.60;38.53;;;7.90;99.90;;;;;;6221157;23;20445;-80
2022/01/18 11:15:18;;;;;;;175.90;18.43;;;7.90;99.90;;;;;;6223388;23;20431;-80
2022/01/18 11:17:56;;;;;;;236.20;39.27;;;7.90;99.90;;;;;;6223647;23;20451;-80
2022/01/18 11:20:25;;;;;;;200.90;27.27;;;7.90;99.90;;;;;;6221769;23;20487;-79
2022/01/18 11:22:55;;;;;;;330.03;41.97;;;7.90;99.90;;;;;;6245172;23;20504;-79
2022/01/18 11:25:24;;;;;;;254.10;45.80;;;7.90;99.90;;;;;;6221161;23;20419;-79
2022/01/18 11:27:56;;;;;;;195.87;41.93;;;7.90;99.90;;;;;;6244894;23;20419;-79
2022/01/18 11:30:29;;;;;;;252.47;43.90;;;7.90;99.90;;;;;;6219168;23;20418;-79
2022/01/18 11:32:59;;;;;;;206.53;27.23;;;7.90;99.90;;;;;;6219717;23;20914;-79
2022/01/18 11:35:38;;;;;;;399.83;38.20;;;7.90;99.90;;;;;;6220681;23;20468;-79
2022/01/18 11:38:13;;;;;;;124.03;30.60;;;7.90;99.90;;;;;;6218890;23;20423;-78
2022/01/18 11:40:47;;;;;;;489.40;59.50;;;7.90;99.90;;;;;;6219350;23;20519;-79
2022/01/18 11:43:34;;;;;;;306.27;52.73;;;7.90;99.90;;;;;;6219810;23;20444;-79
2022/01/18 11:46:21;;;;;;;348.13;43.33;;;7.90;99.90;;;;;;6221561;23;20489;-79
2022/01/18 11:48:58;;;;;;;320.63;54.20;;;7.90;99.90;;;;;;6231177;23;20385;-79
2022/01/18 11:51:36;;;;;;;370.60;39.33;;;7.90;99.90;;;;;;6219130;23;20399;-79
2022/01/18 11:54:28;;;;;;;129.67;23.37;;;7.90;99.90;;;;;;6218743;23;20437;-78
2022/01/18 11:56:56;;;;;;;172.70;32.13;;;7.90;99.90;;;;;;6219491;23;20473;-79
2022/01/18 11:59:27;;;;;;;239.97;37.77;;;7.90;99.90;;;;;;6218853;23;20408;-78
2022/01/18 12:01:56;;;;;;;119.63;26.00;;;7.90;99.90;;;;;;6219969;23;20884;-79
2022/01/18 12:05:13;;;;;;;164.57;28.73;;;7.90;99.90;;;;;;6218276;23;20426;-79
2022/01/18 12:07:57;;;;;;;196.67;36.10;;;7.90;99.90;;;;;;6218692;23;20435;-79
2022/01/18 12:10:54;;;;;;;297.70;44.00;;;7.90;99.90;;;;;;6218328;23;20416;-79
2022/01/18 12:13:35;;;;;;;222.80;40.50;;;7.90;99.90;;;;;;6151114;23;20540;-78
2022/01/18 12:16:11;;;;;;;254.50;51.67;;;7.90;99.90;;;;;;6219819;23;20431;-79
2022/01/18 12:18:58;;;;;;;321.20;58.00;;;7.90;99.90;;;;;;6218935;23;20464;-79
2022/01/18 12:21:28;;;;;;;263.87;43.23;;;7.90;99.90;;;;;;6218640;23;20412;-79
2022/01/18 12:23:57;;;;;;;246.00;52.00;;;7.90;99.90;;;;;;6218582;23;20446;-79
2022/01/18 12:26:38;;;;;;;295.80;38.93;;;7.90;99.90;;;;;;6219305;23;20454;-78
2022/01/18 12:35:03;;;;;;;222.50;38.87;;;7.90;99.90;;;;;;6230224;23;20461;-79
2022/01/18 12:37:47;;;;;;;210.00;38.03;;;7.90;99.90;;;;;;6219616;23;20912;-78
2022/01/18 12:40:34;;;;;;;211.23;43.20;;;7.80;99.90;;;;;;6218712;23;20452;-79
2022/01/18 12:46:15;;;;;;;254.67;41.37;;;7.80;99.90;;;;;;6219526;23;20514;-78
2022/01/18 12:48:43;;;;;;;275.23;35.17;;;7.80;99.90;;;;;;6230651;23;20380;-79
2022/01/18 12:51:14;;;;;;;431.23;52.33;;;7.80;99.90;;;;;;6218859;23;20422;-79
2022/01/18 12:53:42;;;;;;;186.57;33.53;;;7.80;99.90;;;;;;6219333;23;20992;-79
2022/01/18 12:56:10;;;;;;;176.93;29.00;;;7.80;99.90;;;;;;6218469;23;20467;-79
2022/01/18 12:58:43;;;;;;;187.90;37.20;;;7.80;99.90;;;;;;6219351;23;20469;-79
2022/01/18 13:01:13;;;;;;;239.43;38.47;;;7.80;99.90;;;;;;6219174;23;20405;-78
2022/01/18 13:03:44;;;;;;;283.17;36.50;;;7.80;99.90;;;;;;6217653;23;20517;-79
2022/01/18 13:06:14;;;;;;;269.17;47.73;;;7.70;99.90;;;;;;6218088;23;20920;-79
2022/01/18 13:08:46;;;;;;;234.63;39.83;;;7.70;99.90;;;;;;6218146;23;20459;-79
2022/01/18 13:11:16;;;;;;;322.00;41.53;;;7.70;99.90;;;;;;6217534;23;20479;-78
2022/01/18 13:13:53;;;;;;;340.77;44.60;;;7.70;99.90;;;;;;6217800;23;20441;-78
2022/01/18 13:27:33;;;;;;;257.07;25.40;;;7.70;99.90;;;;;;6243421;23;20489;-78
2022/01/18 13:30:18;;;;;;;280.87;33.77;;;7.70;99.90;;;;;;6218827;23;20507;-78
2022/01/18 13:32:48;;;;;;;249.37;46.93;;;7.70;99.90;;;;;;6218264;23;20411;-78
2022/01/18 13:35:20;;;;;;;319.93;50.90;;;7.70;99.90;;;;;;6217502;23;20908;-78
2022/01/18 13:37:49;;;;;;;162.83;43.20;;;7.70;99.90;;;;;;6216616;23;20453;-78
2022/01/18 13:40:19;;;;;;;357.47;42.00;;;7.60;99.90;;;;;;6227998;23;20402;-78
2022/01/18 13:42:50;;;;;;;239.20;35.77;;;7.70;99.90;;;;;;6215923;23;20506;-78
2022/01/18 13:45:24;;;;;;;200.30;25.70;;;7.70;99.90;;;;;;6229041;23;20425;-78
2022/01/18 13:47:54;;;;;;;252.20;42.60;;;7.70;99.90;;;;;;6229013;23;20850;-78
2022/01/18 13:50:47;;;;;;;181.80;37.13;;;7.70;99.90;;;;;;6217587;23;20972;-79
2022/01/18 13:53:19;;;;;;;237.60;34.00;;;7.70;99.90;;;;;;6213096;23;20431;-79
2022/01/18 13:55:54;;;;;;;373.10;59.97;;;7.70;99.90;;;;;;6218123;23;20426;-79
2022/01/18 13:58:26;;;;;;;180.40;34.40;;;7.70;99.90;;;;;;6216666;23;20435;-78
2022/01/18 14:01:08;;;;;;;230.03;39.27;;;7.70;99.90;;;;;;6228978;23;20818;-79
2022/01/18 14:03:38;;;;;;;294.10;39.93;;;7.70;99.90;;;;;;6217496;23;20756;-79
2022/01/18 14:06:08;;;;;;;166.80;24.10;;;7.60;99.90;;;;;;6219702;23;20441;-78
2022/01/18 14:08:43;;;;;;;275.73;43.77;;;7.60;99.90;;;;;;6231178;23;20388;-78